Time;durP1;ratioP1;P1;durP2;ratioP2;P2;SDS_P1;SDS_P2;PMS_P1;PMS_P2;Temp;Humidity;BMP_temperature;BMP_pressure;BME280_temperature;BME280_humidity;BME280_pressure;Samples;Min_cycle;Max_cycle;Signal;HPM_P1;HPM_P2
2023/03/09 00:01:27;;;;;;;2.08;1.30;;;18.30;36.40;;;;;;6230249;22;20156;-87
2023/03/09 00:03:52;;;;;;;1.80;1.30;;;18.30;36.40;;;;;;6205592;22;20228;-87
2023/03/09 00:06:18;;;;;;;2.92;1.52;;;18.30;36.40;;;;;;6231137;22;20137;-86
2023/03/09 00:08:46;;;;;;;1.85;1.20;;;18.30;36.50;;;;;;6205208;22;20205;-87
2023/03/09 00:11:12;;;;;;;2.40;1.38;;;18.30;36.50;;;;;;6205783;22;20151;-87
2023/03/09 00:13:48;;;;;;;1.42;1.20;;;18.20;36.40;;;;;;6205699;22;20171;-86
2023/03/09 00:16:21;;;;;;;2.30;1.40;;;18.30;36.50;;;;;;6206369;22;20176;-87
2023/03/09 00:18:51;;;;;;;2.28;1.30;;;18.20;36.60;;;;;;6256012;22;20128;-87
2023/03/09 00:23:56;;;;;;;3.38;1.40;;;18.20;36.70;;;;;;6174272;23;20597;-87
2023/03/09 00:26:22;;;;;;;1.30;1.20;;;18.20;36.70;;;;;;6168781;23;20161;-86
2023/03/09 00:28:51;;;;;;;1.98;1.20;;;18.20;36.70;;;;;;6168351;23;20197;-87
2023/03/09 00:31:17;;;;;;;2.10;1.30;;;18.20;36.70;;;;;;6133941;23;20151;-86
2023/03/09 00:33:47;;;;;;;1.98;1.30;;;18.20;36.70;;;;;;6158225;23;20151;-87
2023/03/09 00:36:16;;;;;;;1.63;1.33;;;18.20;36.70;;;;;;6159062;23;20218;-87
2023/03/09 00:38:43;;;;;;;2.20;1.50;;;18.20;36.70;;;;;;6158122;23;20148;-86
2023/03/09 00:41:09;;;;;;;1.23;1.10;;;18.20;36.70;;;;;;6133370;23;20210;-86
2023/03/09 00:43:36;;;;;;;2.60;1.52;;;18.20;36.70;;;;;;6157263;23;20147;-87
2023/03/09 00:46:02;;;;;;;1.70;1.13;;;18.20;36.70;;;;;;6157551;23;20182;-86
2023/03/09 00:48:32;;;;;;;1.90;1.40;;;18.10;36.80;;;;;;6158072;23;20163;-87
2023/03/09 00:51:01;;;;;;;1.67;1.35;;;18.20;36.80;;;;;;6157839;23;20159;-87
2023/03/09 00:53:28;;;;;;;1.40;1.27;;;18.20;36.80;;;;;;6163078;23;20159;-87
2023/03/09 00:55:53;;;;;;;4.28;1.48;;;18.20;36.80;;;;;;6163182;23;20190;-87
2023/03/09 00:59:10;;;;;;;2.40;1.20;;;18.20;36.70;;;;;;6164738;23;20529;-87
2023/03/09 01:01:38;;;;;;;1.85;1.20;;;18.10;36.90;;;;;;6186515;22;20153;-86
2023/03/09 01:04:06;;;;;;;1.92;1.10;;;18.10;37.50;;;;;;6207255;22;20153;-87
2023/03/09 01:06:35;;;;;;;3.00;1.10;;;18.10;36.90;;;;;;6205406;22;20145;-86
2023/03/09 01:09:04;;;;;;;1.45;1.25;;;18.20;36.90;;;;;;6205187;22;20141;-87
2023/03/09 01:11:30;;;;;;;1.60;1.25;;;18.10;36.90;;;;;;6230450;22;20151;-87
2023/03/09 01:13:55;;;;;;;3.67;1.27;;;18.10;36.90;;;;;;6206667;22;20160;-88
2023/03/09 01:16:25;;;;;;;2.40;1.60;;;18.10;36.90;;;;;;6205167;22;20600;-86
2023/03/09 01:18:54;;;;;;;1.90;1.40;;;18.10;36.90;;;;;;6205337;22;20141;-87
2023/03/09 01:21:23;;;;;;;1.48;1.20;;;18.20;37.00;;;;;;6205305;22;20190;-86
2023/03/09 01:23:51;;;;;;;1.73;1.33;;;18.10;37.00;;;;;;6230116;22;20641;-87
2023/03/09 01:26:20;;;;;;;2.42;1.08;;;18.10;36.90;;;;;;6205751;22;20160;-88
2023/03/09 01:28:46;;;;;;;1.50;1.40;;;18.00;37.00;;;;;;6164622;23;20177;-87
2023/03/09 01:31:13;;;;;;;1.50;1.25;;;18.10;37.10;;;;;;6140650;23;20174;-88
2023/03/09 01:33:42;;;;;;;2.38;1.20;;;18.10;37.20;;;;;;6116355;23;20203;-87
2023/03/09 01:36:14;;;;;;;2.70;1.30;;;18.10;37.10;;;;;;6139253;23;20182;-87
2023/03/09 01:38:42;;;;;;;2.17;1.23;;;18.00;37.00;;;;;;6115404;23;20562;-86
2023/03/09 01:41:11;;;;;;;2.65;1.35;;;18.10;37.10;;;;;;6115676;23;20295;-87
2023/03/09 01:43:41;;;;;;;1.63;1.20;;;18.10;37.10;;;;;;6052760;23;20157;-87
2023/03/09 01:46:30;;;;;;;1.85;1.27;;;18.10;37.10;;;;;;6047354;23;20582;-86
2023/03/09 01:49:03;;;;;;;2.30;1.10;;;18.10;37.20;;;;;;6048113;23;20172;-87
2023/03/09 01:51:37;;;;;;;1.70;1.10;;;18.00;37.10;;;;;;6071394;23;20178;-86
2023/03/09 01:54:19;;;;;;;2.55;1.20;;;18.10;37.20;;;;;;6047580;23;20687;-87
2023/03/09 01:56:53;;;;;;;3.40;1.30;;;18.10;37.10;;;;;;6046526;23;20245;-87
2023/03/09 01:59:30;;;;;;;3.88;1.63;;;18.10;37.10;;;;;;6047314;23;20168;-86
2023/03/09 02:01:56;;;;;;;1.60;1.40;;;18.00;37.10;;;;;;6046808;23;20189;-87
2023/03/09 02:04:27;;;;;;;3.30;1.55;;;18.10;37.30;;;;;;6024382;23;20209;-87
2023/03/09 02:06:57;;;;;;;1.80;1.25;;;18.10;37.20;;;;;;6070454;23;20627;-86
2023/03/09 02:09:29;;;;;;;1.58;1.15;;;18.00;37.10;;;;;;6082254;23;20219;-87
2023/03/09 02:12:01;;;;;;;1.63;1.33;;;18.00;37.10;;;;;;6084405;23;20155;-87
2023/03/09 02:14:27;;;;;;;1.83;1.17;;;18.10;36.60;;;;;;6120652;23;20200;-88
2023/03/09 02:16:53;;;;;;;2.60;1.25;;;18.00;37.30;;;;;;6112061;23;20254;-86
2023/03/09 02:19:46;;;;;;;2.72;1.25;;;18.10;37.30;;;;;;6137105;23;20148;-87
2023/03/09 02:22:12;;;;;;;1.63;1.25;;;17.90;37.20;;;;;;6135771;23;20487;-87
2023/03/09 02:25:03;;;;;;;1.75;1.30;;;18.00;37.30;;;;;;6135695;23;20151;-86
2023/03/09 02:27:30;;;;;;;1.48;1.30;;;18.00;37.40;;;;;;6136141;23;20163;-86
2023/03/09 02:29:57;;;;;;;1.55;1.15;;;18.00;37.40;;;;;;6111377;23;20553;-87
2023/03/09 02:32:24;;;;;;;1.80;1.30;;;18.00;37.50;;;;;;6110917;23;20158;-87
2023/03/09 02:34:57;;;;;;;1.80;1.40;;;18.00;37.30;;;;;;6136106;23;20158;-85
2023/03/09 02:37:32;;;;;;;1.52;1.30;;;18.00;37.40;;;;;;6111863;23;20162;-86
2023/03/09 02:40:10;;;;;;;2.22;1.15;;;18.00;37.40;;;;;;6136225;23;20151;-87
2023/03/09 02:42:37;;;;;;;1.85;1.40;;;18.00;37.50;;;;;;6175621;23;20588;-86
2023/03/09 02:45:03;;;;;;;1.67;1.40;;;18.00;37.50;;;;;;6202196;23;20188;-86
2023/03/09 02:47:36;;;;;;;2.03;1.48;;;18.00;37.50;;;;;;6227511;23;20197;-87
2023/03/09 02:50:03;;;;;;;1.65;1.30;;;18.00;37.50;;;;;;6202467;23;20152;-86
2023/03/09 02:52:33;;;;;;;1.90;1.30;;;17.90;37.40;;;;;;6201894;23;20145;-88
2023/03/09 02:55:02;;;;;;;2.78;1.25;;;18.00;37.40;;;;;;6200609;23;20152;-87
2023/03/09 02:57:30;;;;;;;1.45;1.13;;;18.00;37.40;;;;;;6200747;23;20149;-86
2023/03/09 02:59:56;;;;;;;1.40;1.30;;;17.90;37.30;;;;;;6194672;23;20156;-87
2023/03/09 03:02:22;;;;;;;1.73;1.10;;;18.00;37.30;;;;;;6169749;23;20269;-86
2023/03/09 03:04:48;;;;;;;2.63;1.50;;;18.00;37.40;;;;;;6168270;23;20155;-86
2023/03/09 03:07:18;;;;;;;1.38;1.20;;;17.90;37.30;;;;;;6170836;23;20160;-87
2023/03/09 03:09:53;;;;;;;1.95;1.35;;;17.90;37.30;;;;;;6221051;23;20177;-85
2023/03/09 03:12:19;;;;;;;1.80;1.50;;;18.00;37.50;;;;;;6171003;23;20248;-87
2023/03/09 03:14:46;;;;;;;1.90;1.30;;;18.00;38.20;;;;;;6170802;23;20576;-86
2023/03/09 03:17:15;;;;;;;1.27;1.17;;;18.00;37.60;;;;;;6170831;23;20189;-87
2023/03/09 03:19:44;;;;;;;1.60;1.25;;;18.00;37.60;;;;;;6170358;23;20154;-86
2023/03/09 03:22:10;;;;;;;1.73;1.30;;;17.90;37.40;;;;;;6171424;23;20150;-87
2023/03/09 03:24:37;;;;;;;2.22;1.40;;;17.90;37.40;;;;;;6195399;23;20158;-87
2023/03/09 03:27:06;;;;;;;1.40;1.30;;;17.90;37.40;;;;;;6170388;23;20142;-88
2023/03/09 03:29:32;;;;;;;2.50;1.27;;;17.90;37.50;;;;;;6170410;23;20148;-86
2023/03/09 03:31:58;;;;;;;3.05;1.38;;;17.90;37.50;;;;;;6195289;23;20516;-86
2023/03/09 03:34:25;;;;;;;1.70;1.40;;;17.90;37.60;;;;;;6200073;23;20176;-87
2023/03/09 03:36:51;;;;;;;1.40;1.30;;;17.90;37.60;;;;;;6225942;23;20628;-86
2023/03/09 03:39:17;;;;;;;1.63;1.50;;;17.90;37.60;;;;;;6201764;23;20142;-87
2023/03/09 03:41:48;;;;;;;1.77;1.08;;;17.90;37.60;;;;;;6201115;23;20145;-87
2023/03/09 03:44:13;;;;;;;1.77;1.30;;;17.90;37.60;;;;;;6225825;23;20161;-87
2023/03/09 03:46:39;;;;;;;1.77;1.25;;;17.90;37.60;;;;;;6202003;23;20152;-87
2023/03/09 03:49:05;;;;;;;1.23;0.90;;;17.90;37.60;;;;;;6201513;23;20148;-86
2023/03/09 03:51:31;;;;;;;1.63;1.52;;;17.90;37.60;;;;;;6226807;23;20214;-88
2023/03/09 03:53:56;;;;;;;1.55;1.20;;;17.90;37.70;;;;;;6201289;23;20236;-86
2023/03/09 03:56:25;;;;;;;1.65;1.38;;;17.80;37.60;;;;;;6201363;23;20181;-88
2023/03/09 03:58:54;;;;;;;1.52;1.30;;;17.80;37.60;;;;;;6201779;23;20482;-86
2023/03/09 04:01:21;;;;;;;1.40;1.20;;;17.90;37.60;;;;;;6201201;23;20176;-88
2023/03/09 04:03:50;;;;;;;2.17;1.45;;;17.80;37.60;;;;;;6206126;22;20191;-86
2023/03/09 04:06:17;;;;;;;2.30;1.20;;;17.80;37.70;;;;;;6231009;22;20461;-86
2023/03/09 04:08:44;;;;;;;2.08;1.58;;;17.80;37.80;;;;;;6205833;22;20179;-86
2023/03/09 04:11:11;;;;;;;1.45;1.35;;;17.80;37.60;;;;;;6205024;22;20210;-87
2023/03/09 04:13:43;;;;;;;2.75;1.35;;;17.80;37.60;;;;;;6206516;22;20216;-88
2023/03/09 04:16:18;;;;;;;1.65;1.48;;;17.80;37.70;;;;;;6195080;23;20182;-87
2023/03/09 04:18:44;;;;;;;2.00;1.20;;;17.90;37.70;;;;;;6106317;23;20247;-86
2023/03/09 04:21:10;;;;;;;2.17;1.25;;;17.90;37.70;;;;;;6058443;23;20148;-87
2023/03/09 04:23:43;;;;;;;2.13;1.33;;;17.80;37.60;;;;;;6082619;23;20475;-87
2023/03/09 04:26:09;;;;;;;1.90;1.60;;;17.90;37.80;;;;;;6081673;23;20238;-86
2023/03/09 04:28:35;;;;;;;1.70;1.40;;;17.80;37.70;;;;;;6082369;23;20163;-86
2023/03/09 04:31:02;;;;;;;1.67;1.30;;;17.80;37.60;;;;;;6082704;23;20159;-86
2023/03/09 04:33:29;;;;;;;2.65;1.25;;;17.80;37.70;;;;;;6106423;23;20156;-86
2023/03/09 04:35:57;;;;;;;2.08;1.40;;;17.80;37.90;;;;;;5987714;23;20183;-86
2023/03/09 04:38:27;;;;;;;1.45;1.00;;;17.80;37.90;;;;;;5964306;24;20158;-86
2023/03/09 04:40:57;;;;;;;1.75;1.45;;;17.80;37.70;;;;;;5965143;24;20156;-86
2023/03/09 04:43:22;;;;;;;2.17;1.45;;;17.80;37.90;;;;;;5941428;24;20624;-86
2023/03/09 04:45:48;;;;;;;1.30;1.20;;;17.80;37.60;;;;;;5963661;24;20169;-87
2023/03/09 04:48:14;;;;;;;2.10;1.50;;;17.80;37.60;;;;;;5987379;23;20155;-86
2023/03/09 04:50:45;;;;;;;1.83;1.30;;;17.80;37.80;;;;;;6037970;23;20598;-87
2023/03/09 04:53:11;;;;;;;1.50;1.33;;;17.80;37.80;;;;;;6043733;23;20165;-88
2023/03/09 04:55:41;;;;;;;2.03;1.15;;;17.80;37.80;;;;;;6042958;23;20269;-86
2023/03/09 04:58:15;;;;;;;2.20;1.40;;;17.80;37.80;;;;;;6042852;23;20182;-87
2023/03/09 05:00:40;;;;;;;1.73;1.30;;;17.80;37.90;;;;;;6042084;23;20190;-86
2023/03/09 05:03:12;;;;;;;1.65;1.33;;;17.80;37.80;;;;;;6042112;23;20570;-86
2023/03/09 05:05:43;;;;;;;2.50;1.30;;;17.80;37.90;;;;;;6042722;23;20603;-86
2023/03/09 05:08:10;;;;;;;1.85;1.60;;;17.70;37.80;;;;;;6116331;23;20279;-86
2023/03/09 05:10:37;;;;;;;1.63;1.40;;;17.70;37.80;;;;;;6135455;23;20136;-86
2023/03/09 05:13:03;;;;;;;1.35;1.25;;;17.80;37.90;;;;;;6158283;23;20150;-87
2023/03/09 05:15:32;;;;;;;1.80;1.23;;;17.70;37.80;;;;;;6169491;23;20174;-86
2023/03/09 05:18:06;;;;;;;1.30;1.20;;;17.80;37.80;;;;;;6170033;23;20149;-87
2023/03/09 05:20:33;;;;;;;1.85;1.35;;;17.70;37.90;;;;;;6256206;22;20182;-87
2023/03/09 05:23:03;;;;;;;1.65;1.27;;;17.80;37.80;;;;;;6231108;22;20149;-87
2023/03/09 05:25:29;;;;;;;1.48;1.35;;;17.70;37.80;;;;;;6230306;22;20239;-87
2023/03/09 05:27:55;;;;;;;1.95;1.60;;;17.70;37.90;;;;;;6206193;22;20184;-87
2023/03/09 05:30:24;;;;;;;1.63;1.27;;;17.70;37.80;;;;;;6206634;22;20144;-85
2023/03/09 05:32:50;;;;;;;2.28;1.30;;;17.70;37.80;;;;;;6206080;22;20149;-86
2023/03/09 05:35:18;;;;;;;1.50;1.40;;;17.70;37.90;;;;;;6204967;22;20149;-87
2023/03/09 05:37:48;;;;;;;1.80;1.20;;;17.70;37.90;;;;;;6205061;22;20523;-86
2023/03/09 05:40:17;;;;;;;2.60;1.30;;;17.80;37.90;;;;;;6205663;22;20145;-86
2023/03/09 05:42:43;;;;;;;1.65;1.33;;;17.70;38.00;;;;;;6206440;22;20144;-86
2023/03/09 05:45:10;;;;;;;1.45;1.35;;;17.70;37.80;;;;;;6230174;22;20148;-87
2023/03/09 05:47:39;;;;;;;1.42;1.30;;;17.70;37.80;;;;;;6230598;22;20132;-87
2023/03/09 05:50:10;;;;;;;1.80;1.45;;;17.70;37.90;;;;;;6206734;22;20144;-86
2023/03/09 05:52:42;;;;;;;2.00;1.45;;;17.70;37.90;;;;;;6256929;22;20131;-86
2023/03/09 05:55:09;;;;;;;1.55;1.23;;;17.70;37.90;;;;;;6257180;22;20125;-87
2023/03/09 05:57:43;;;;;;;2.10;1.30;;;17.70;37.90;;;;;;6207945;22;20638;-87
2023/03/09 06:00:10;;;;;;;2.70;1.30;;;17.70;37.80;;;;;;6232223;22;20141;-87
2023/03/09 06:02:38;;;;;;;1.55;1.40;;;17.70;38.00;;;;;;6215968;22;20620;-86
2023/03/09 06:05:07;;;;;;;1.42;1.33;;;17.80;38.00;;;;;;6232333;22;20198;-86
2023/03/09 06:07:45;;;;;;;2.20;1.58;;;17.70;38.70;;;;;;6195973;23;20146;-87
2023/03/09 06:10:12;;;;;;;1.52;1.23;;;17.70;37.90;;;;;;6171128;23;20150;-86
2023/03/09 06:12:39;;;;;;;1.63;1.50;;;17.70;38.40;;;;;;6167235;23;20154;-86
2023/03/09 06:15:08;;;;;;;2.05;1.60;;;17.70;37.70;;;;;;6143032;23;20198;-86
2023/03/09 06:17:38;;;;;;;1.65;1.30;;;17.80;37.80;;;;;;6117785;23;20594;-85
2023/03/09 06:20:04;;;;;;;1.75;1.40;;;17.70;37.80;;;;;;6142463;23;20564;-86
2023/03/09 06:22:31;;;;;;;2.15;1.27;;;17.70;37.60;;;;;;6143505;23;20147;-86
2023/03/09 06:25:01;;;;;;;1.92;1.50;;;17.70;37.70;;;;;;6118823;23;20143;-87
2023/03/09 06:27:31;;;;;;;1.38;1.27;;;17.80;37.80;;;;;;6143973;23;20155;-87
2023/03/09 06:29:57;;;;;;;1.67;1.20;;;17.80;37.70;;;;;;6143292;23;20203;-86
2023/03/09 06:32:25;;;;;;;1.83;1.30;;;17.80;37.70;;;;;;6103108;23;20156;-85
2023/03/09 06:34:56;;;;;;;1.80;1.40;;;17.70;37.80;;;;;;6102798;23;20552;-87
2023/03/09 06:37:22;;;;;;;1.80;1.45;;;17.70;37.70;;;;;;6104599;23;20758;-86
2023/03/09 06:39:51;;;;;;;1.75;1.50;;;17.70;37.80;;;;;;6113024;23;20132;-86
2023/03/09 06:42:16;;;;;;;1.67;1.27;;;17.70;37.80;;;;;;6138397;23;20285;-86
2023/03/09 06:44:44;;;;;;;1.65;1.33;;;17.70;37.70;;;;;;6083823;23;20678;-87
2023/03/09 06:47:25;;;;;;;1.98;1.30;;;17.70;37.70;;;;;;6084428;23;20156;-86
2023/03/09 06:49:52;;;;;;;1.73;1.45;;;17.70;37.80;;;;;;6082666;23;20160;-87
2023/03/09 06:52:20;;;;;;;1.48;1.25;;;17.70;37.80;;;;;;6082151;23;20163;-86
2023/03/09 06:54:47;;;;;;;1.95;1.30;;;17.70;37.70;;;;;;6082442;23;20227;-87
2023/03/09 06:57:18;;;;;;;1.92;1.35;;;17.80;37.80;;;;;;6106637;23;20655;-87
2023/03/09 06:59:46;;;;;;;2.33;1.48;;;17.70;37.80;;;;;;6044328;23;20170;-87
2023/03/09 07:02:14;;;;;;;1.30;1.20;;;17.70;37.80;;;;;;6042358;23;20189;-87
2023/03/09 07:04:42;;;;;;;1.40;1.30;;;17.70;38.50;;;;;;6043810;23;20174;-87
2023/03/09 07:07:08;;;;;;;1.10;1.00;;;17.70;37.80;;;;;;5997391;23;20237;-86
2023/03/09 07:09:36;;;;;;;1.38;1.25;;;17.70;37.70;;;;;;6043309;23;20163;-86
2023/03/09 07:12:03;;;;;;;1.52;1.40;;;17.70;37.70;;;;;;6054700;23;20140;-87
2023/03/09 07:14:32;;;;;;;1.52;1.40;;;17.70;37.70;;;;;;6055549;23;20182;-86
2023/03/09 07:17:13;;;;;;;1.98;1.40;;;17.70;37.80;;;;;;6131672;23;20207;-87
2023/03/09 07:19:40;;;;;;;1.20;1.10;;;17.70;37.90;;;;;;6132528;23;20152;-86
2023/03/09 07:22:08;;;;;;;1.40;1.23;;;17.70;38.40;;;;;;6108572;23;20148;-88
2023/03/09 07:24:37;;;;;;;2.35;1.30;;;17.70;37.90;;;;;;6107175;23;20152;-86
2023/03/09 07:27:04;;;;;;;2.30;1.60;;;17.70;37.80;;;;;;6078528;23;20156;-86
2023/03/09 07:29:30;;;;;;;2.25;1.17;;;17.70;37.70;;;;;;6081564;23;20159;-86
2023/03/09 07:31:58;;;;;;;1.58;1.23;;;17.70;37.80;;;;;;6133348;23;20164;-86
2023/03/09 07:34:24;;;;;;;1.20;1.10;;;17.70;38.00;;;;;;6111333;23;20164;-85
2023/03/09 07:36:53;;;;;;;1.33;1.15;;;17.80;37.50;;;;;;6171653;23;20178;-86
2023/03/09 07:39:19;;;;;;;1.20;1.10;;;17.80;37.90;;;;;;6148263;23;20293;-86
2023/03/09 07:41:47;;;;;;;1.40;1.30;;;17.80;37.40;;;;;;6173225;23;20170;-86
2023/03/09 07:44:15;;;;;;;1.63;1.38;;;17.90;37.50;;;;;;6139196;23;20152;-86
2023/03/09 07:46:40;;;;;;;1.63;1.38;;;18.10;36.90;;;;;;6114217;23;20282;-85
2023/03/09 07:49:11;;;;;;;1.33;1.23;;;18.10;36.50;;;;;;6114534;23;20148;-86
2023/03/09 07:51:42;;;;;;;1.85;1.40;;;18.20;36.60;;;;;;6113426;23;20187;-87
2023/03/09 07:54:08;;;;;;;1.30;1.20;;;18.20;36.40;;;;;;6138393;23;20161;-85
2023/03/09 07:56:37;;;;;;;1.25;1.13;;;18.20;36.60;;;;;;6197464;23;20190;-86
2023/03/09 07:59:04;;;;;;;1.92;1.30;;;18.20;36.40;;;;;;6172849;23;20210;-86
2023/03/09 08:01:30;;;;;;;3.17;1.60;;;18.20;36.40;;;;;;6197529;23;20182;-85
2023/03/09 08:04:00;;;;;;;2.30;1.08;;;18.20;36.50;;;;;;6181554;23;20661;-85
2023/03/09 08:06:29;;;;;;;1.63;1.33;;;18.20;36.50;;;;;;6178010;23;20169;-86
2023/03/09 08:08:56;;;;;;;1.80;1.05;;;18.20;36.50;;;;;;6251871;22;20147;-86
2023/03/09 08:11:28;;;;;;;1.60;1.20;;;18.10;36.40;;;;;;6239478;22;20168;-85
2023/03/09 08:13:57;;;;;;;2.22;1.30;;;18.20;36.40;;;;;;6289857;22;20149;-85
2023/03/09 08:16:23;;;;;;;2.08;1.30;;;18.30;36.40;;;;;;6240049;22;20176;-85
2023/03/09 08:18:53;;;;;;;1.42;1.20;;;18.20;36.40;;;;;;6266038;22;20133;-85
2023/03/09 08:21:21;;;;;;;1.65;1.23;;;18.20;36.60;;;;;;6267794;22;20155;-86
2023/03/09 08:23:48;;;;;;;1.30;1.20;;;18.20;36.40;;;;;;6234859;23;20240;-86
2023/03/09 08:26:19;;;;;;;1.42;1.00;;;18.30;35.90;;;;;;6209580;23;20706;-86
2023/03/09 08:28:47;;;;;;;1.25;1.13;;;18.30;36.40;;;;;;6234138;23;20160;-86
2023/03/09 08:31:16;;;;;;;1.27;1.08;;;18.30;36.40;;;;;;6208415;23;20147;-85
2023/03/09 08:33:44;;;;;;;1.10;0.95;;;18.30;35.90;;;;;;6208495;23;20153;-86
2023/03/09 08:36:12;;;;;;;4.10;1.30;;;18.40;35.50;;;;;;6108428;23;20188;-87
2023/03/09 08:38:38;;;;;;;3.38;1.20;;;18.50;34.90;;;;;;6109333;23;20155;-86
2023/03/09 08:41:06;;;;;;;3.38;1.30;;;18.60;35.50;;;;;;6108566;23;20601;-86
2023/03/09 08:43:32;;;;;;;2.38;1.10;;;18.70;35.60;;;;;;6111129;23;20212;-86
2023/03/09 08:46:07;;;;;;;3.47;1.00;;;18.70;35.40;;;;;;6110695;23;20160;-85
2023/03/09 08:48:44;;;;;;;3.80;1.10;;;18.60;36.10;;;;;;6085689;23;20156;-85
2023/03/09 08:51:15;;;;;;;1.15;1.00;;;18.50;36.50;;;;;;6086694;23;20172;-86
2023/03/09 08:53:43;;;;;;;3.13;1.20;;;18.50;35.90;;;;;;6082121;23;20154;-86
2023/03/09 08:56:14;;;;;;;2.10;1.08;;;18.50;36.10;;;;;;6109846;23;20184;-86
2023/03/09 08:58:43;;;;;;;5.05;1.30;;;18.40;36.50;;;;;;6105321;23;20169;-87
2023/03/09 09:01:21;;;;;;;2.03;1.05;;;18.40;36.50;;;;;;6105155;23;20183;-86
2023/03/09 09:03:47;;;;;;;3.17;1.23;;;18.40;36.60;;;;;;6057543;23;20295;-86
2023/03/09 09:06:14;;;;;;;4.15;1.30;;;18.30;36.60;;;;;;6082380;23;20158;-87
2023/03/09 09:08:47;;;;;;;2.75;1.02;;;18.30;36.70;;;;;;6100939;23;20169;-86
2023/03/09 09:11:18;;;;;;;3.63;0.98;;;18.30;36.80;;;;;;6025648;23;20162;-86
2023/03/09 09:13:47;;;;;;;3.55;1.13;;;18.40;36.70;;;;;;6044389;23;20189;-86
2023/03/09 09:16:13;;;;;;;1.38;1.00;;;18.40;36.70;;;;;;6080409;23;20192;-86
2023/03/09 09:18:44;;;;;;;2.45;1.10;;;18.40;36.70;;;;;;6097489;23;20153;-86
2023/03/09 09:21:14;;;;;;;4.72;1.10;;;18.50;36.60;;;;;;6108118;23;20164;-86
2023/03/09 09:23:41;;;;;;;3.33;1.13;;;18.50;36.50;;;;;;6108765;23;20259;-86
2023/03/09 09:26:23;;;;;;;1.90;1.20;;;18.50;36.80;;;;;;6108706;23;20373;-86
2023/03/09 09:28:52;;;;;;;1.92;1.08;;;18.50;36.80;;;;;;6078567;23;20237;-85
2023/03/09 09:31:19;;;;;;;2.08;1.20;;;18.50;36.90;;;;;;6078777;23;20153;-85
2023/03/09 09:33:49;;;;;;;2.55;1.00;;;18.50;36.90;;;;;;6079206;23;20221;-86
2023/03/09 09:36:19;;;;;;;3.08;0.85;;;18.50;36.90;;;;;;6085293;23;20663;-86
2023/03/09 09:38:47;;;;;;;3.25;0.80;;;18.40;37.00;;;;;;6051931;23;20229;-86
2023/03/09 09:41:22;;;;;;;1.60;1.08;;;18.40;36.80;;;;;;6032603;23;20154;-86
2023/03/09 09:43:58;;;;;;;2.55;0.90;;;18.40;37.20;;;;;;6061293;23;20155;-85
2023/03/09 09:46:24;;;;;;;1.10;0.90;;;18.40;37.00;;;;;;6050115;23;20652;-85
2023/03/09 09:48:52;;;;;;;2.20;0.77;;;18.50;37.20;;;;;;6050515;23;20154;-85
2023/03/09 09:51:45;;;;;;;1.27;1.17;;;18.50;37.20;;;;;;6051323;23;20164;-85
2023/03/09 09:54:34;;;;;;;2.88;0.98;;;18.40;37.40;;;;;;6069968;23;20164;-85
2023/03/09 09:57:05;;;;;;;2.40;1.02;;;18.50;36.80;;;;;;6078329;23;20197;-86
2023/03/09 09:59:36;;;;;;;2.17;1.00;;;18.60;37.30;;;;;;6077724;23;20156;-86
2023/03/09 10:02:25;;;;;;;0.80;0.80;;;18.60;37.00;;;;;;6077856;23;20149;-84
2023/03/09 10:05:07;;;;;;;0.80;0.70;;;18.60;36.90;;;;;;6076549;23;20209;-86
2023/03/09 10:07:36;;;;;;;3.75;0.90;;;18.60;37.30;;;;;;6076025;23;20153;-85
2023/03/09 10:10:04;;;;;;;1.30;0.93;;;18.60;37.90;;;;;;6106855;23;20168;-86
2023/03/09 10:12:41;;;;;;;2.72;1.00;;;18.60;37.30;;;;;;6146571;23;20162;-86
2023/03/09 10:15:21;;;;;;;1.70;0.80;;;18.60;37.50;;;;;;6082922;23;20188;-85
2023/03/09 10:18:09;;;;;;;1.60;0.70;;;18.60;37.20;;;;;;6059187;23;20164;-85
2023/03/09 10:20:37;;;;;;;2.78;0.90;;;18.60;37.30;;;;;;6107535;23;20280;-86
2023/03/09 10:23:20;;;;;;;0.98;0.80;;;18.50;37.50;;;;;;6116303;23;20167;-86
2023/03/09 10:26:58;;;;;;;;;;;;;;;;;;;;;
2023/03/09 10:29:47;;;;;;;0.88;0.80;;;18.50;37.40;;;;;;6031887;23;20162;-87
2023/03/09 10:32:19;;;;;;;1.70;0.85;;;18.60;36.70;;;;;;6122682;23;20155;-87
2023/03/09 10:35:20;;;;;;;;;;;;;;;;;;;;;
2023/03/09 10:37:53;;;;;;;0.90;0.80;;;18.70;37.00;;;;;;6070136;23;20219;-87
2023/03/09 10:40:40;;;;;;;0.90;0.80;;;18.80;36.90;;;;;;6101159;23;20266;-86
2023/03/09 10:47:54;;;;;;;0.98;0.70;;;18.90;36.60;;;;;;5880193;24;20158;-86
2023/03/09 10:50:16;;;;;;;1.13;0.65;;;18.90;36.70;;;;;;5878561;24;20162;-84
2023/03/09 10:52:46;;;;;;;0.80;0.80;;;18.90;36.70;;;;;;5877779;24;20609;-85
2023/03/09 10:55:28;;;;;;;1.80;0.70;;;18.90;36.80;;;;;;5871686;24;20169;-86
2023/03/09 10:57:57;;;;;;;0.65;0.65;;;18.80;36.80;;;;;;5879122;24;20154;-87
2023/03/09 11:00:25;;;;;;;1.40;0.90;;;18.90;36.80;;;;;;5923344;24;20161;-85
2023/03/09 11:02:56;;;;;;;2.38;0.80;;;18.90;36.80;;;;;;5928213;24;20526;-85
2023/03/09 11:05:24;;;;;;;1.38;0.70;;;18.90;36.80;;;;;;5907745;24;20164;-83
2023/03/09 11:07:55;;;;;;;1.15;0.70;;;18.80;36.90;;;;;;5930381;24;20252;-85
2023/03/09 11:10:29;;;;;;;5.53;0.90;;;18.80;36.90;;;;;;5911162;24;20172;-84
2023/03/09 11:12:55;;;;;;;1.17;0.90;;;18.90;36.90;;;;;;5957284;24;20156;-83
2023/03/09 11:16:05;;;;;;;1.50;0.60;;;18.80;36.90;;;;;;5987697;24;20700;-87
2023/03/09 11:18:33;;;;;;;0.73;0.70;;;18.80;36.90;;;;;;5930524;24;20160;-86
2023/03/09 11:21:08;;;;;;;1.45;0.80;;;18.90;37.10;;;;;;5906478;24;20160;-85
2023/03/09 11:23:41;;;;;;;2.10;0.85;;;18.80;36.90;;;;;;5948662;24;20159;-85
2023/03/09 11:26:41;;;;;;;1.00;0.70;;;18.80;36.90;;;;;;5960666;24;20151;-83
2023/03/09 11:29:29;;;;;;;0.77;0.68;;;18.80;36.80;;;;;;5961418;24;20156;-86
2023/03/09 11:31:54;;;;;;;0.77;0.77;;;18.80;36.80;;;;;;5982954;24;20227;-85
2023/03/09 11:34:39;;;;;;;1.92;0.70;;;18.80;36.80;;;;;;5960993;24;20144;-86
2023/03/09 11:37:35;;;;;;;0.70;0.70;;;18.80;36.90;;;;;;5970018;24;20178;-85
2023/03/09 11:40:15;;;;;;;0.85;0.70;;;18.80;36.90;;;;;;5994350;24;20166;-86
2023/03/09 11:43:03;;;;;;;0.82;0.70;;;18.90;36.80;;;;;;6066055;23;20188;-86
2023/03/09 11:45:41;;;;;;;0.68;0.68;;;18.90;36.60;;;;;;6112853;23;20149;-86
2023/03/09 11:48:33;;;;;;;1.02;0.73;;;18.90;36.60;;;;;;6110981;23;20216;-85
2023/03/09 11:51:17;;;;;;;0.80;0.60;;;18.90;36.50;;;;;;6060688;23;20205;-86
2023/03/09 11:54:11;;;;;;;0.70;0.60;;;18.90;36.40;;;;;;6031081;23;20161;-85
2023/03/09 11:56:38;;;;;;;0.60;0.60;;;18.90;36.60;;;;;;6170533;23;20191;-86
2023/03/09 11:59:16;;;;;;;1.60;0.80;;;18.90;36.40;;;;;;6109371;23;20156;-84
2023/03/09 12:01:54;;;;;;;0.63;0.50;;;18.90;36.30;;;;;;6085024;23;20148;-84
2023/03/09 12:04:44;;;;;;;;;;;;;;;;;;;;;
2023/03/09 12:10:38;;;;;;;0.65;0.55;;;19.00;36.00;;;;;;5995040;24;20158;-85
2023/03/09 12:13:20;;;;;;;0.60;0.60;;;19.00;36.00;;;;;;5987869;24;20152;-85
2023/03/09 12:16:00;;;;;;;0.98;0.70;;;19.00;36.00;;;;;;5947575;24;20192;-86
2023/03/09 12:18:38;;;;;;;0.68;0.68;;;18.90;36.10;;;;;;5947205;24;20604;-85
2023/03/09 12:21:06;;;;;;;0.70;0.60;;;18.80;36.90;;;;;;5987118;24;20157;-85
2023/03/09 12:23:45;;;;;;;0.93;0.57;;;18.80;36.10;;;;;;5938009;24;20622;-86
2023/03/09 12:26:31;;;;;;;1.88;0.75;;;18.80;36.20;;;;;;5962042;24;20296;-85
2023/03/09 12:32:45;;;;;;;0.60;0.60;;;18.90;36.10;;;;;;6070611;23;20175;-85
2023/03/09 12:35:45;;;;;;;0.60;0.60;;;18.80;36.10;;;;;;6019172;23;20154;-84
2023/03/09 12:38:59;;;;;;;2.15;0.60;;;18.80;36.10;;;;;;6029594;23;20233;-87
2023/03/09 12:45:40;;;;;;;0.70;0.60;;;18.80;35.80;;;;;;6047335;23;20130;-86
2023/03/09 12:52:41;;;;;;;1.38;0.47;;;19.00;35.60;;;;;;6050957;23;20213;-87
2023/03/09 13:03:34;;;;;;;2.65;0.60;;;19.00;35.50;;;;;;6048100;23;20220;-87
2023/03/09 13:05:47;;;;;;;2.47;0.60;;;19.10;35.30;;;;;;6040130;23;20161;-86
2023/03/09 13:08:32;;;;;;;0.73;0.50;;;19.20;35.30;;;;;;6025776;23;20187;-85
2023/03/09 13:11:31;;;;;;;3.65;0.60;;;19.10;35.40;;;;;;6051529;23;20158;-85
2023/03/09 13:14:01;;;;;;;0.60;0.60;;;18.90;35.60;;;;;;6027624;23;20161;-85
2023/03/09 13:16:51;;;;;;;0.60;0.50;;;18.90;35.50;;;;;;6050576;23;20185;-86
2023/03/09 13:19:41;;;;;;;;;;;;;;;;;;;;;
2023/03/09 13:22:37;;;;;;;;;;;;;;;;;;;;;
2023/03/09 13:25:21;;;;;;;0.65;0.50;;;18.80;35.80;;;;;;5938848;24;20195;-84
2023/03/09 13:28:20;;;;;;;0.68;0.60;;;18.90;35.70;;;;;;5932824;24;20203;-85
2023/03/09 13:30:47;;;;;;;0.57;0.55;;;19.00;35.50;;;;;;5960899;24;20251;-83
2023/03/09 13:33:17;;;;;;;0.60;0.55;;;19.00;35.50;;;;;;5905034;24;20632;-84
2023/03/09 13:35:48;;;;;;;0.75;0.60;;;19.00;35.90;;;;;;5918729;24;20603;-84
2023/03/09 13:38:27;;;;;;;0.75;0.57;;;19.00;36.00;;;;;;5966834;24;20186;-86
2023/03/09 13:40:57;;;;;;;0.43;0.40;;;19.00;36.20;;;;;;5988972;24;20155;-86
2023/03/09 13:43:29;;;;;;;1.33;0.50;;;19.00;36.00;;;;;;5987259;23;20143;-85
2023/03/09 13:46:06;;;;;;;1.17;0.47;;;19.10;35.90;;;;;;5986565;23;20184;-84
2023/03/09 13:48:35;;;;;;;0.63;0.55;;;19.10;35.70;;;;;;6048714;23;20185;-84